createdAt,value
2022-08-03T00:00:34.740Z,1.90
2022-08-03T00:02:36.314Z,2.00
2022-08-03T00:04:37.838Z,2.13
2022-08-03T00:06:39.420Z,2.22
2022-08-03T00:08:41.019Z,3.17
2022-08-03T00:10:42.591Z,3.28
2022-08-03T00:12:44.207Z,5.20
2022-08-03T00:14:45.677Z,2.50
2022-08-03T00:16:47.214Z,2.58
2022-08-03T00:18:48.693Z,2.72
2022-08-03T00:20:50.333Z,2.50
2022-08-03T00:22:52.215Z,2.60
2022-08-03T00:24:53.689Z,2.95
2022-08-03T00:26:55.204Z,2.70
2022-08-03T00:28:56.768Z,2.47
2022-08-03T00:30:58.330Z,2.25
2022-08-03T00:33:00.075Z,1.90
2022-08-03T00:35:08.393Z,2.15
2022-08-03T00:37:12.076Z,1.95
2022-08-03T00:39:13.581Z,2.13
2022-08-03T00:41:15.761Z,2.28
2022-08-03T00:43:17.504Z,2.50
2022-08-03T00:45:20.367Z,2.25
2022-08-03T00:47:21.884Z,2.00
2022-08-03T00:49:24.327Z,1.77
2022-08-03T00:51:25.935Z,2.13
2022-08-03T00:53:28.246Z,2.15
2022-08-03T00:55:30.569Z,2.20
2022-08-03T00:57:32.941Z,1.95
2022-08-03T00:59:34.779Z,2.20
2022-08-03T01:01:36.619Z,2.30
2022-08-03T01:03:38.501Z,2.50
2022-08-03T01:05:52.104Z,2.33
2022-08-03T01:08:16.945Z,2.30
2022-08-03T01:10:41.895Z,2.42
2022-08-03T01:12:52.683Z,2.50
2022-08-03T01:15:08.941Z,2.15
2022-08-03T01:17:19.267Z,2.33
2022-08-03T01:19:59.730Z,2.35
2022-08-03T01:22:07.125Z,2.28
2022-08-03T01:24:38.191Z,2.33
2022-08-03T01:26:52.962Z,2.92
2022-08-03T01:29:03.448Z,2.40
2022-08-03T01:31:08.449Z,2.25
2022-08-03T01:33:17.737Z,2.50
2022-08-03T01:35:28.164Z,2.60
2022-08-03T01:37:39.373Z,2.38
2022-08-03T01:39:42.769Z,2.22
2022-08-03T01:42:01.121Z,2.67
2022-08-03T01:44:29.284Z,2.67
2022-08-03T01:46:28.572Z,2.28
2022-08-03T01:48:31.183Z,3.13
2022-08-03T01:50:34.371Z,2.50
2022-08-03T01:52:39.489Z,2.85
2022-08-03T01:54:44.198Z,2.38
2022-08-03T01:56:47.785Z,2.50
2022-08-03T01:58:50.688Z,2.67
2022-08-03T02:00:53.473Z,2.70
2022-08-03T02:02:56.031Z,2.67
2022-08-03T02:04:58.661Z,2.13
2022-08-03T02:07:03.454Z,2.58
2022-08-03T02:09:06.421Z,2.90
2022-08-03T02:11:08.116Z,2.60
2022-08-03T02:13:10.717Z,2.38
2022-08-03T02:15:15.223Z,2.85
2022-08-03T02:17:17.023Z,2.38
2022-08-03T02:19:19.531Z,2.90
2022-08-03T02:21:56.511Z,2.95
2022-08-03T02:23:45.285Z,3.20
2022-08-03T02:25:51.057Z,3.00
2022-08-03T02:27:59.656Z,2.88
2022-08-03T02:32:13.774Z,3.05
2022-08-03T02:34:17.183Z,2.80
2022-08-03T02:36:26.957Z,2.63
2022-08-03T02:38:33.202Z,2.95
2022-08-03T02:40:36.427Z,3.00
2022-08-03T02:42:40.165Z,3.28
2022-08-03T02:44:47.797Z,3.35
2022-08-03T02:46:53.197Z,2.77
2022-08-03T02:48:56.792Z,2.58
2022-08-03T02:50:59.988Z,2.72
2022-08-03T02:53:03.256Z,3.03
2022-08-03T02:55:07.214Z,3.28
2022-08-03T02:57:11.269Z,3.13
2022-08-03T02:59:14.413Z,3.30
2022-08-03T03:01:19.194Z,3.20
2022-08-03T03:03:22.293Z,2.90
2022-08-03T03:05:52.448Z,3.17
2022-08-03T03:07:52.165Z,3.60
2022-08-03T03:09:55.102Z,3.00
2022-08-03T03:11:57.574Z,3.42
2022-08-03T03:14:00.317Z,3.53
2022-08-03T03:16:04.821Z,3.45
2022-08-03T03:18:07.676Z,3.22
2022-08-03T03:20:09.705Z,2.88
2022-08-03T03:22:12.612Z,3.30
2022-08-03T03:24:16.352Z,3.10
2022-08-03T03:26:18.579Z,3.30
2022-08-03T03:28:20.792Z,3.10
2022-08-03T03:30:22.612Z,3.45
2022-08-03T03:32:24.311Z,3.25
2022-08-03T03:34:26.533Z,3.70
2022-08-03T03:36:30.294Z,3.70
2022-08-03T03:38:32.737Z,3.50
2022-08-03T03:40:38.390Z,3.13
2022-08-03T03:42:40.533Z,3.28
2022-08-03T03:44:42.145Z,3.33
2022-08-03T03:46:43.800Z,3.30
2022-08-03T03:48:45.550Z,3.80
2022-08-03T03:50:50.267Z,3.50
2022-08-03T03:52:51.828Z,3.45
2022-08-03T03:55:05.582Z,3.50
2022-08-03T03:57:07.118Z,3.40
2022-08-03T03:59:08.610Z,3.40
2022-08-03T04:01:10.245Z,3.38
2022-08-03T04:03:12.332Z,3.80
2022-08-03T04:05:32.852Z,4.50
2022-08-03T04:08:09.155Z,3.67
2022-08-03T04:10:39.875Z,4.50
2022-08-03T04:12:50.178Z,4.50
2022-08-03T04:14:56.793Z,4.53
2022-08-03T04:17:02.173Z,4.38
2022-08-03T04:19:16.581Z,4.05
2022-08-03T04:21:23.566Z,4.23
2022-08-03T04:23:27.972Z,4.28
2022-08-03T04:25:32.795Z,3.95
2022-08-03T04:27:40.570Z,4.22
2022-08-03T04:29:48.265Z,4.15
2022-08-03T04:31:51.839Z,4.50
2022-08-03T04:33:54.878Z,4.30
2022-08-03T04:36:01.614Z,3.92
2022-08-03T04:38:07.845Z,4.32
2022-08-03T04:40:14.838Z,4.03
2022-08-03T04:42:18.614Z,4.07
2022-08-03T04:44:23.565Z,4.28
2022-08-03T04:46:34.573Z,4.20
2022-08-03T04:48:36.439Z,4.30
2022-08-03T04:50:38.171Z,3.80
2022-08-03T04:52:39.942Z,4.00
2022-08-03T04:54:50.209Z,4.28
2022-08-03T04:56:52.861Z,4.38
2022-08-03T04:58:54.419Z,4.15
2022-08-03T05:00:55.909Z,4.13
2022-08-03T05:02:57.543Z,4.10
2022-08-03T05:04:59.560Z,3.75
2022-08-03T05:07:01.102Z,3.97
2022-08-03T05:09:14.142Z,4.20
2022-08-03T05:11:16.822Z,3.85
2022-08-03T05:13:18.330Z,3.53
2022-08-03T05:15:19.893Z,3.88
2022-08-03T05:17:21.417Z,3.35
2022-08-03T05:19:22.895Z,4.13
2022-08-03T05:21:24.470Z,4.00
2022-08-03T05:23:25.964Z,3.33
2022-08-03T05:25:27.905Z,3.78
2022-08-03T05:27:29.473Z,3.72
2022-08-03T05:29:32.232Z,3.60
2022-08-03T05:31:33.868Z,3.78
2022-08-03T05:33:35.392Z,3.72
2022-08-03T05:35:56.213Z,3.60
2022-08-03T05:38:01.230Z,3.47
2022-08-03T05:40:04.397Z,3.67
2022-08-03T05:42:05.947Z,3.92
2022-08-03T05:44:07.467Z,4.00
2022-08-03T05:46:13.041Z,4.22
2022-08-03T05:48:14.825Z,4.13
2022-08-03T05:50:17.688Z,3.40
2022-08-03T05:52:19.184Z,3.40
2022-08-03T05:54:20.836Z,3.70
2022-08-03T05:56:24.919Z,3.85
2022-08-03T05:58:26.468Z,3.90
2022-08-03T06:00:31.559Z,3.92
2022-08-03T06:02:33.098Z,3.80
2022-08-03T06:04:34.632Z,3.42
2022-08-03T06:06:36.209Z,3.30
2022-08-03T06:08:38.223Z,3.58
2022-08-03T06:10:39.865Z,3.65
2022-08-03T06:12:41.446Z,3.50
2022-08-03T06:14:42.936Z,3.95
2022-08-03T06:16:44.438Z,3.22
2022-08-03T06:18:46.303Z,3.55
2022-08-03T06:20:49.441Z,3.33
2022-08-03T06:23:01.266Z,3.35
2022-08-03T06:25:04.947Z,3.45
2022-08-03T06:27:08.979Z,3.10
2022-08-03T06:29:10.609Z,3.13
2022-08-03T06:31:12.314Z,2.88
2022-08-03T06:33:13.951Z,3.67
2022-08-03T06:35:16.306Z,3.03
2022-08-03T06:37:18.530Z,2.83
2022-08-03T06:39:23.433Z,3.08
2022-08-03T06:41:26.286Z,3.40
2022-08-03T06:43:27.783Z,2.80
2022-08-03T06:45:31.738Z,2.70
2022-08-03T06:47:33.769Z,3.28
2022-08-03T06:49:35.399Z,2.70
2022-08-03T06:52:03.249Z,2.50
2022-08-03T06:53:58.423Z,2.40
2022-08-03T06:56:00.158Z,2.35
2022-08-03T06:58:03.471Z,2.33
2022-08-03T07:00:11.903Z,2.88
2022-08-03T07:02:19.043Z,2.70
2022-08-03T07:04:21.088Z,2.58
2022-08-03T07:06:22.629Z,2.63
2022-08-03T07:08:33.413Z,1.80
2022-08-03T07:10:36.270Z,1.98
2022-08-03T07:12:38.825Z,2.67
2022-08-03T07:15:01.281Z,2.38
2022-08-03T07:17:04.712Z,2.03
2022-08-03T07:19:13.396Z,2.17
2022-08-03T07:21:16.647Z,2.10
2022-08-03T07:23:19.306Z,2.13
2022-08-03T07:25:21.483Z,2.72
2022-08-03T07:27:23.083Z,2.10
2022-08-03T07:29:25.046Z,2.25
2022-08-03T07:31:26.615Z,2.65
2022-08-03T07:33:28.220Z,2.03
2022-08-03T07:35:29.733Z,2.00
2022-08-03T07:37:31.512Z,1.73
2022-08-03T07:39:33.041Z,2.00
2022-08-03T07:41:34.615Z,2.00
2022-08-03T07:43:36.126Z,1.88
2022-08-03T07:45:37.721Z,1.92
2022-08-03T07:47:39.219Z,1.73
2022-08-03T07:49:41.553Z,1.88
2022-08-03T07:51:43.218Z,1.98
2022-08-03T07:53:47.181Z,1.75
2022-08-03T07:55:49.497Z,1.80
2022-08-03T07:58:09.769Z,2.60
2022-08-03T08:00:18.431Z,2.38
2022-08-03T08:02:19.972Z,1.92
2022-08-03T08:04:21.498Z,1.90
2022-08-03T08:06:22.999Z,2.53
2022-08-03T08:08:24.550Z,1.67
2022-08-03T08:10:26.249Z,2.08
2022-08-03T08:12:27.819Z,1.70
2022-08-03T08:14:29.842Z,2.47
2022-08-03T08:16:31.430Z,2.20
2022-08-03T08:18:33.036Z,1.90
2022-08-03T08:20:37.959Z,1.92
2022-08-03T08:22:39.751Z,1.98
2022-08-03T08:24:43.681Z,1.70
2022-08-03T08:26:46.107Z,1.85
2022-08-03T08:28:47.977Z,2.00
2022-08-03T08:30:49.984Z,1.77
2022-08-03T08:32:51.776Z,1.67
2022-08-03T08:34:54.113Z,2.22
2022-08-03T08:36:55.651Z,1.65
2022-08-03T08:38:57.205Z,1.75
2022-08-03T08:40:58.789Z,1.48
2022-08-03T08:43:00.324Z,1.60
2022-08-03T08:45:02.297Z,1.67
2022-08-03T08:47:04.545Z,1.73
2022-08-03T08:49:08.987Z,2.20
2022-08-03T08:51:12.551Z,1.65
2022-08-03T08:53:17.646Z,1.90
2022-08-03T08:55:23.576Z,2.08
2022-08-03T08:57:44.698Z,1.80
2022-08-03T08:59:47.845Z,1.52
2022-08-03T09:01:50.639Z,1.90
2022-08-03T09:03:54.114Z,1.70
2022-08-03T09:05:56.588Z,1.35
2022-08-03T09:07:58.611Z,1.67
2022-08-03T09:10:11.971Z,2.22
2022-08-03T09:12:40.594Z,2.00
2022-08-03T09:14:45.397Z,1.48
2022-08-03T09:17:04.512Z,2.10
2022-08-03T09:19:14.171Z,1.95
2022-08-03T09:21:34.865Z,1.60
2022-08-03T09:24:02.195Z,1.67
2022-08-03T09:28:11.615Z,1.40
2022-08-03T09:30:19.085Z,1.42
2022-08-03T09:32:37.217Z,1.83
2022-08-03T09:34:39.115Z,2.25
2022-08-03T09:36:46.442Z,1.58
2022-08-03T09:39:04.459Z,1.30
2022-08-03T09:41:18.319Z,1.40
2022-08-03T09:43:20.740Z,1.52
2022-08-03T09:45:28.405Z,1.30
2022-08-03T09:47:37.856Z,1.92
2022-08-03T09:50:01.325Z,1.30
2022-08-03T09:52:31.643Z,1.40
2022-08-03T09:54:35.635Z,1.00
2022-08-03T09:56:44.810Z,1.20
2022-08-03T09:58:47.652Z,1.13
2022-08-03T10:01:06.243Z,1.65
2022-08-03T10:03:08.028Z,1.58
2022-08-03T10:05:19.797Z,1.20
2022-08-03T10:07:23.730Z,1.67
2022-08-03T10:09:25.229Z,1.10
2022-08-03T10:11:40.375Z,1.58
2022-08-03T10:13:43.201Z,1.02
2022-08-03T10:16:22.593Z,1.30
2022-08-03T10:18:08.051Z,1.70
2022-08-03T10:20:10.078Z,1.23
2022-08-03T10:22:18.912Z,1.30
2022-08-03T10:24:26.109Z,1.60
2022-08-03T10:26:32.025Z,1.70
2022-08-03T10:28:45.313Z,1.42
2022-08-03T10:30:52.825Z,1.30
2022-08-03T10:33:05.154Z,1.23
2022-08-03T10:35:27.240Z,1.42
2022-08-03T10:37:32.239Z,1.30
2022-08-03T10:39:34.352Z,1.20
2022-08-03T10:41:39.817Z,1.50
2022-08-03T10:43:59.156Z,1.42
2022-08-03T10:46:02.419Z,1.50
2022-08-03T10:48:05.417Z,1.42
2022-08-03T10:50:08.214Z,1.80
2022-08-03T10:52:13.631Z,1.40
2022-08-03T10:54:37.197Z,1.60
2022-08-03T10:56:57.780Z,1.48
2022-08-03T10:58:59.961Z,1.40
2022-08-03T11:01:07.678Z,1.40
2022-08-03T11:03:16.485Z,1.02
2022-08-03T11:05:28.646Z,1.45
2022-08-03T11:07:30.212Z,1.30
2022-08-03T11:09:42.636Z,1.20
2022-08-03T11:11:48.782Z,1.25
2022-08-03T11:14:20.969Z,1.42
2022-08-03T11:16:23.672Z,1.45
2022-08-03T11:18:26.836Z,1.73
2022-08-03T11:20:51.391Z,1.30
2022-08-03T11:22:54.533Z,1.50
2022-08-03T11:24:57.317Z,1.60
2022-08-03T11:27:19.099Z,1.77
2022-08-03T11:29:30.862Z,1.48
2022-08-03T11:31:49.247Z,1.63
2022-08-03T11:34:10.049Z,1.70
2022-08-03T11:36:11.575Z,2.00
2022-08-03T11:38:13.330Z,1.40
2022-08-03T11:40:35.962Z,1.35
2022-08-03T11:42:37.831Z,1.30
2022-08-03T11:44:39.977Z,1.30
2022-08-03T11:46:41.677Z,1.60
2022-08-03T11:48:51.054Z,1.60
2022-08-03T11:50:52.626Z,1.38
2022-08-03T11:52:54.236Z,1.30
2022-08-03T11:54:56.922Z,1.55
2022-08-03T11:56:58.872Z,1.60
2022-08-03T11:59:17.871Z,1.60
2022-08-03T12:01:23.252Z,1.42
2022-08-03T12:03:24.916Z,1.83
2022-08-03T12:05:41.947Z,1.63
2022-08-03T12:08:03.255Z,1.40
2022-08-03T12:10:13.363Z,1.67
2022-08-03T12:12:16.334Z,1.67
2022-08-03T12:14:50.423Z,1.65
2022-08-03T12:16:41.029Z,1.45
2022-08-03T12:18:42.640Z,1.42
2022-08-03T12:20:45.473Z,1.30
2022-08-03T12:22:46.969Z,1.85
2022-08-03T12:24:48.475Z,1.50
2022-08-03T12:26:52.184Z,1.40
2022-08-03T12:29:01.101Z,2.03
2022-08-03T12:31:07.771Z,1.30
2022-08-03T12:33:28.267Z,1.45
2022-08-03T12:35:29.884Z,0.90
2022-08-03T12:37:32.065Z,1.98
2022-08-03T12:39:33.890Z,1.60
2022-08-03T12:41:40.790Z,1.60
2022-08-03T12:43:49.655Z,1.10
2022-08-03T12:45:51.259Z,1.70
2022-08-03T12:47:58.796Z,1.00
2022-08-03T12:50:00.288Z,1.80
2022-08-03T12:52:07.016Z,1.00
2022-08-03T12:54:16.018Z,1.55
2022-08-03T12:56:19.931Z,1.23
2022-08-03T12:58:35.878Z,1.13
2022-08-03T13:00:37.482Z,1.30
2022-08-03T13:02:39.283Z,1.35
2022-08-03T13:04:49.935Z,1.30
2022-08-03T13:07:03.470Z,1.25
2022-08-03T13:09:06.946Z,1.30
2022-08-03T13:11:53.648Z,1.40
2022-08-03T13:13:48.691Z,1.23
2022-08-03T13:15:50.263Z,1.33
2022-08-03T13:17:51.783Z,1.70
2022-08-03T13:19:54.144Z,1.27
2022-08-03T13:22:04.403Z,1.60
2022-08-03T13:24:06.660Z,1.33
2022-08-03T13:26:08.748Z,1.38
2022-08-03T13:28:14.144Z,1.50
2022-08-03T13:30:24.181Z,1.30
2022-08-03T13:32:33.168Z,2.00
2022-08-03T13:34:34.784Z,1.35
2022-08-03T13:37:07.452Z,1.20
2022-08-03T13:39:00.662Z,1.35
2022-08-03T13:41:04.813Z,1.27
2022-08-03T13:43:06.764Z,1.30
2022-08-03T13:45:09.695Z,1.08
2022-08-03T13:47:11.258Z,1.20
2022-08-03T13:49:13.218Z,1.27
2022-08-03T13:51:22.506Z,1.02
2022-08-03T13:53:24.459Z,1.85
2022-08-03T13:55:25.964Z,1.55
2022-08-03T13:58:11.638Z,1.75
2022-08-03T13:59:50.760Z,1.67
2022-08-03T14:01:55.681Z,2.10
2022-08-03T14:03:58.340Z,1.85
2022-08-03T14:05:59.840Z,1.40
2022-08-03T14:08:04.799Z,1.45
2022-08-03T14:10:07.074Z,1.27
2022-08-03T14:12:09.070Z,1.50
2022-08-03T14:14:11.043Z,1.55
2022-08-03T14:16:12.566Z,1.40
2022-08-03T14:18:27.734Z,1.20
2022-08-03T14:20:37.786Z,1.30
2022-08-03T14:22:49.208Z,1.60
2022-08-03T14:24:50.709Z,1.40
2022-08-03T14:26:53.094Z,1.48
2022-08-03T14:28:54.680Z,1.70
2022-08-03T14:30:56.357Z,2.15
2022-08-03T14:33:00.727Z,1.80
2022-08-03T14:35:02.518Z,1.73
2022-08-03T14:37:04.074Z,1.80
2022-08-03T14:39:05.612Z,1.77
2022-08-03T14:41:07.248Z,1.33
2022-08-03T14:43:21.495Z,1.50
2022-08-03T14:45:23.265Z,1.55
2022-08-03T14:47:24.897Z,1.67
2022-08-03T14:50:36.250Z,1.70
2022-08-03T14:51:51.394Z,1.88
2022-08-03T14:53:55.682Z,1.63
2022-08-03T14:55:57.447Z,1.98
2022-08-03T14:58:00.032Z,1.67
2022-08-03T15:00:01.754Z,1.85
2022-08-03T15:02:07.057Z,1.50
2022-08-03T15:04:11.709Z,1.60
2022-08-03T15:06:13.264Z,1.77
2022-08-03T15:08:14.861Z,1.95
2022-08-03T15:10:16.473Z,1.40
2022-08-03T15:12:17.991Z,1.90
2022-08-03T15:14:19.498Z,1.67
2022-08-03T15:16:30.085Z,1.20
2022-08-03T15:18:32.149Z,1.60
2022-08-03T15:20:43.989Z,1.35
2022-08-03T15:22:46.261Z,2.13
2022-08-03T15:24:47.850Z,2.08
2022-08-03T15:26:50.631Z,1.52
2022-08-03T15:28:52.107Z,2.00
2022-08-03T15:30:53.791Z,1.40
2022-08-03T15:32:55.265Z,1.88
2022-08-03T15:34:56.831Z,1.58
2022-08-03T15:36:58.390Z,1.30
2022-08-03T15:39:01.333Z,1.80
2022-08-03T15:41:03.038Z,1.60
2022-08-03T15:43:04.593Z,1.60
2022-08-03T15:45:06.652Z,2.08
2022-08-03T15:47:08.256Z,1.80
2022-08-03T15:49:12.526Z,1.38
2022-08-03T15:51:14.245Z,1.77
2022-08-03T15:53:15.750Z,1.83
2022-08-03T15:55:17.258Z,1.50
2022-08-03T15:57:19.212Z,1.92
2022-08-03T15:59:20.885Z,1.70
2022-08-03T16:01:22.597Z,1.52
2022-08-03T16:03:25.140Z,1.25
2022-08-03T16:05:26.731Z,1.83
2022-08-03T16:08:03.814Z,1.38
2022-08-03T16:10:05.571Z,1.52
2022-08-03T16:12:15.417Z,1.80
2022-08-03T16:14:32.061Z,1.27
2022-08-03T16:16:40.419Z,1.58
2022-08-03T16:18:42.616Z,1.27
2022-08-03T16:20:45.180Z,2.53
2022-08-03T16:22:48.481Z,1.27
2022-08-03T16:24:51.035Z,1.50
2022-08-03T16:26:52.625Z,2.05
2022-08-03T16:28:54.193Z,1.58
2022-08-03T16:30:55.717Z,1.65
2022-08-03T16:32:57.240Z,1.30
2022-08-03T16:34:58.914Z,1.27
2022-08-03T16:37:11.743Z,1.65
2022-08-03T16:39:21.995Z,1.42
2022-08-03T16:41:23.541Z,1.55
2022-08-03T16:43:25.246Z,1.52
2022-08-03T16:45:26.861Z,1.60
2022-08-03T16:47:28.420Z,1.73
2022-08-03T16:49:55.210Z,1.52
2022-08-03T16:51:51.487Z,1.98
2022-08-03T16:54:07.251Z,1.48
2022-08-03T16:56:10.683Z,1.60
2022-08-03T16:58:12.688Z,1.58
2022-08-03T17:00:33.661Z,1.50
2022-08-03T17:02:36.710Z,1.38
2022-08-03T17:04:40.352Z,1.83
2022-08-03T17:06:44.624Z,1.70
2022-08-03T17:08:55.312Z,1.48
2022-08-03T17:10:57.085Z,1.40
2022-08-03T17:12:58.677Z,1.52
2022-08-03T17:15:00.150Z,1.92
2022-08-03T17:17:06.082Z,1.90
2022-08-03T17:19:09.475Z,1.52
2022-08-03T17:21:15.151Z,2.08
2022-08-03T17:23:45.604Z,1.60
2022-08-03T17:26:01.514Z,1.95
2022-08-03T17:28:48.252Z,1.75
2022-08-03T17:30:47.516Z,2.00
2022-08-03T17:32:57.045Z,1.95
2022-08-03T17:35:00.018Z,1.45
2022-08-03T17:37:04.434Z,1.60
2022-08-03T17:39:06.644Z,1.35
2022-08-03T17:41:10.907Z,2.22
2022-08-03T17:44:13.773Z,1.67
2022-08-03T17:45:52.330Z,2.10
2022-08-03T17:47:57.446Z,1.42
2022-08-03T17:49:59.623Z,1.70
2022-08-03T17:52:06.611Z,1.52
2022-08-03T17:54:23.909Z,2.13
2022-08-03T17:56:46.048Z,1.95
2022-08-03T17:59:08.524Z,1.45
2022-08-03T18:01:58.269Z,1.77
2022-08-03T18:04:02.689Z,1.45
2022-08-03T18:06:12.846Z,1.35
2022-08-03T18:08:24.890Z,1.63
2022-08-03T18:10:33.642Z,1.67
2022-08-03T18:12:51.828Z,1.87
2022-08-03T18:15:07.778Z,1.60
2022-08-03T18:17:15.701Z,1.90
2022-08-03T18:19:19.265Z,1.85
2022-08-03T18:21:24.029Z,1.40
2022-08-03T18:23:36.909Z,1.58
2022-08-03T18:25:50.046Z,1.88
2022-08-03T18:27:56.257Z,1.73
2022-08-03T18:30:01.723Z,1.40
2022-08-03T18:32:12.931Z,1.45
2022-08-03T18:34:33.208Z,2.30
2022-08-03T18:36:37.550Z,1.80
2022-08-03T18:38:41.963Z,1.83
2022-08-03T18:40:48.650Z,1.80
2022-08-03T18:42:52.809Z,2.08
2022-08-03T18:44:57.099Z,2.33
2022-08-03T18:47:04.475Z,2.40
2022-08-03T18:49:16.545Z,2.83
2022-08-03T18:51:28.841Z,2.92
2022-08-03T18:54:02.603Z,2.72
2022-08-03T18:56:14.745Z,3.03
2022-08-03T18:58:27.685Z,3.00
2022-08-03T19:00:54.250Z,3.38
2022-08-03T19:03:01.790Z,2.92
2022-08-03T19:05:07.820Z,3.47
2022-08-03T19:07:11.157Z,2.80
2022-08-03T19:09:27.959Z,3.00
2022-08-03T19:12:14.249Z,3.38
2022-08-03T19:14:08.633Z,3.50
2022-08-03T19:16:27.390Z,3.75
2022-08-03T19:18:31.285Z,4.28
2022-08-03T19:20:32.899Z,4.72
2022-08-03T19:22:35.745Z,4.10
2022-08-03T19:24:39.934Z,4.43
2022-08-03T19:26:41.456Z,5.30
2022-08-03T19:28:43.200Z,5.15
2022-08-03T19:30:46.457Z,4.90
2022-08-03T19:32:55.230Z,5.03
2022-08-03T19:34:59.651Z,5.28
2022-08-03T19:37:02.527Z,5.32
2022-08-03T19:39:09.091Z,5.18
2022-08-03T19:41:15.354Z,5.63
2022-08-03T19:43:53.097Z,4.95
2022-08-03T19:46:05.797Z,4.80
2022-08-03T19:48:12.701Z,5.07
2022-08-03T19:50:15.512Z,5.65
2022-08-03T19:52:20.729Z,5.68
2022-08-03T19:54:52.829Z,6.78
2022-08-03T19:56:56.510Z,5.68
2022-08-03T19:58:59.315Z,6.13
2022-08-03T20:01:01.278Z,6.22
2022-08-03T20:03:24.811Z,6.30
2022-08-03T20:05:27.336Z,5.93
2022-08-03T20:07:33.499Z,6.13
2022-08-03T20:09:35.641Z,7.00
2022-08-03T20:11:44.950Z,6.45
2022-08-03T20:13:49.797Z,6.53
2022-08-03T20:15:53.407Z,6.55
2022-08-03T20:17:58.651Z,7.05
2022-08-03T20:20:00.754Z,6.70
2022-08-03T20:22:02.326Z,6.00
2022-08-03T20:24:24.230Z,6.30
2022-08-03T20:26:30.224Z,7.57
2022-08-03T20:28:50.655Z,7.05
2022-08-03T20:30:53.114Z,6.35
2022-08-03T20:32:54.652Z,7.80
2022-08-03T20:34:56.773Z,7.10
2022-08-03T20:37:00.180Z,7.47
2022-08-03T20:39:02.145Z,7.35
2022-08-03T20:41:09.605Z,6.97
2022-08-03T20:43:11.408Z,7.43
2022-08-03T20:45:59.683Z,7.05
2022-08-03T20:47:50.303Z,7.53
2022-08-03T20:49:53.001Z,7.07
2022-08-03T20:51:55.373Z,6.80
2022-08-03T20:54:00.678Z,6.95
2022-08-03T20:56:03.052Z,7.43
2022-08-03T20:58:04.676Z,6.88
2022-08-03T21:00:13.928Z,6.72
2022-08-03T21:02:19.547Z,7.43
2022-08-03T21:04:30.950Z,6.57
2022-08-03T21:06:37.613Z,6.40
2022-08-03T21:08:47.012Z,6.20
2022-08-03T21:10:51.661Z,6.82
2022-08-03T21:13:14.902Z,6.65
2022-08-03T21:16:06.823Z,6.63
2022-08-03T21:17:54.485Z,6.07
2022-08-03T21:19:57.282Z,6.47
2022-08-03T21:21:59.886Z,6.32
2022-08-03T21:24:03.629Z,6.05
2022-08-03T21:26:05.652Z,6.20
2022-08-03T21:28:07.829Z,5.55
2022-08-03T21:30:10.997Z,6.05
2022-08-03T21:32:19.349Z,6.32
2022-08-03T21:34:37.325Z,7.28
2022-08-03T21:36:38.897Z,6.32
2022-08-03T21:38:40.903Z,6.80
2022-08-03T21:40:42.574Z,6.10
2022-08-03T21:42:45.515Z,5.82
2022-08-03T21:44:47.038Z,5.93
2022-08-03T21:46:53.094Z,6.18
2022-08-03T21:50:07.692Z,6.95
2022-08-03T21:51:25.312Z,6.05
2022-08-03T21:54:02.525Z,6.30
2022-08-03T21:56:05.878Z,7.78
2022-08-03T21:58:08.837Z,7.30
2022-08-03T22:00:17.335Z,7.28
2022-08-03T22:02:23.972Z,7.13
2022-08-03T22:04:50.241Z,6.70
2022-08-03T22:06:48.542Z,6.25
2022-08-03T22:08:52.702Z,6.55
2022-08-03T22:10:54.336Z,7.00
2022-08-03T22:12:55.892Z,6.80
2022-08-03T22:15:01.993Z,6.75
2022-08-03T22:17:06.466Z,7.30
2022-08-03T22:19:08.853Z,14.35
2022-08-03T22:21:13.974Z,7.32
2022-08-03T22:23:21.174Z,6.82
2022-08-03T22:25:30.530Z,7.93
2022-08-03T22:27:34.988Z,7.68
2022-08-03T22:29:39.814Z,7.57
2022-08-03T22:31:58.732Z,8.25
2022-08-03T22:34:01.124Z,8.10
2022-08-03T22:36:04.689Z,7.22
2022-08-03T22:38:08.498Z,7.47
2022-08-03T22:40:14.924Z,8.15
2022-08-03T22:42:19.067Z,7.28
2022-08-03T22:44:21.825Z,8.13
2022-08-03T22:46:25.888Z,7.28
2022-08-03T22:48:27.788Z,7.70
2022-08-03T22:50:31.376Z,7.95
2022-08-03T22:52:36.870Z,8.68
2022-08-03T22:54:38.957Z,9.57
2022-08-03T22:56:41.373Z,8.63
2022-08-03T22:58:42.921Z,7.75
2022-08-03T23:00:57.617Z,7.38
2022-08-03T23:03:02.090Z,6.85
2022-08-03T23:05:16.431Z,7.70
2022-08-03T23:07:33.430Z,7.25
2022-08-03T23:09:35.362Z,7.85
2022-08-03T23:11:46.118Z,8.13
2022-08-03T23:13:52.197Z,7.90
2022-08-03T23:16:00.402Z,8.10
2022-08-03T23:18:03.886Z,8.00
2022-08-03T23:20:08.249Z,8.60
2022-08-03T23:22:28.613Z,7.45
2022-08-03T23:24:39.032Z,8.23
2022-08-03T23:26:41.301Z,10.10
2022-08-03T23:28:46.726Z,8.88
2022-08-03T23:30:51.024Z,8.52
2022-08-03T23:32:54.806Z,8.63
2022-08-03T23:35:17.840Z,9.60
2022-08-03T23:37:20.293Z,8.60
2022-08-03T23:39:22.627Z,8.63
2022-08-03T23:41:24.425Z,8.57
2022-08-03T23:43:45.293Z,8.70
2022-08-03T23:45:49.572Z,8.45
2022-08-03T23:47:51.252Z,9.27
2022-08-03T23:49:53.542Z,8.70
2022-08-03T23:52:08.386Z,9.25
2022-08-03T23:54:38.107Z,9.68
2022-08-03T23:56:52.153Z,10.30
2022-08-03T23:59:34.134Z,10.68
